createdAt,value
2023-03-06T00:00:48.124Z,4.72
2023-03-06T00:05:49.931Z,4.18
2023-03-06T00:10:51.692Z,4.80
2023-03-06T00:15:53.682Z,4.57
2023-03-06T00:20:55.449Z,4.82
2023-03-06T00:25:57.179Z,4.43
2023-03-06T00:30:58.869Z,5.10
2023-03-06T00:36:00.539Z,4.53
2023-03-06T00:41:10.666Z,5.10
2023-03-06T00:46:12.402Z,5.20
2023-03-06T00:51:14.224Z,5.05
2023-03-06T00:56:17.420Z,5.22
2023-03-06T01:01:20.668Z,5.43
2023-03-06T01:06:22.479Z,5.45
2023-03-06T01:11:24.168Z,5.57
2023-03-06T01:16:26.014Z,5.97
2023-03-06T01:21:27.735Z,5.95
2023-03-06T01:26:29.501Z,5.45
2023-03-06T01:31:31.231Z,5.68
2023-03-06T01:36:32.942Z,5.53
2023-03-06T01:41:34.681Z,5.75
2023-03-06T01:46:41.962Z,5.80
2023-03-06T01:52:09.532Z,5.28
2023-03-06T01:57:20.605Z,5.80
2023-03-06T02:02:22.591Z,5.68
2023-03-06T02:07:25.374Z,5.95
2023-03-06T02:12:27.427Z,5.80
2023-03-06T02:17:29.678Z,5.35
2023-03-06T02:23:03.552Z,5.95
2023-03-06T02:28:12.922Z,5.40
2023-03-06T02:33:17.113Z,5.43
2023-03-06T02:38:21.881Z,5.35
2023-03-06T02:43:27.948Z,5.35
2023-03-06T02:48:29.614Z,5.15
2023-03-06T02:53:31.811Z,5.45
2023-03-06T02:58:33.555Z,5.97
2023-03-06T03:03:35.350Z,5.55
2023-03-06T03:08:37.229Z,5.93
2023-03-06T03:13:38.956Z,6.15
2023-03-06T03:18:41.176Z,6.28
2023-03-06T03:23:43.184Z,6.03
2023-03-06T03:28:45.226Z,6.35
2023-03-06T03:33:46.888Z,6.20
2023-03-06T03:38:48.610Z,7.10
2023-03-06T03:43:50.373Z,6.65
2023-03-06T03:48:52.087Z,7.55
2023-03-06T03:53:55.858Z,7.47
2023-03-06T03:58:58.112Z,7.45
2023-03-06T04:03:59.996Z,8.20
2023-03-06T04:09:01.921Z,8.00
2023-03-06T04:14:03.639Z,7.50
2023-03-06T04:19:05.388Z,7.35
2023-03-06T04:24:07.499Z,8.27
2023-03-06T04:29:09.196Z,7.20
2023-03-06T04:34:10.872Z,7.20
2023-03-06T04:39:13.819Z,7.38
2023-03-06T04:44:15.550Z,6.78
2023-03-06T04:49:17.273Z,7.97
2023-03-06T04:54:19.150Z,7.43
2023-03-06T04:59:21.069Z,7.68
2023-03-06T05:04:22.759Z,7.85
2023-03-06T05:09:24.468Z,7.97
2023-03-06T05:14:28.621Z,7.72
2023-03-06T05:19:31.014Z,8.23
2023-03-06T05:24:32.739Z,7.80
2023-03-06T05:29:34.431Z,8.48
2023-03-06T05:34:36.119Z,8.73
2023-03-06T05:39:37.911Z,7.32
2023-03-06T05:44:41.591Z,8.68
2023-03-06T05:49:43.314Z,7.50
2023-03-06T05:54:49.440Z,9.15
2023-03-06T05:59:51.760Z,8.50
2023-03-06T06:04:53.449Z,7.47
2023-03-06T06:09:55.322Z,8.07
2023-03-06T06:14:57.213Z,7.70
2023-03-06T06:19:59.172Z,8.25
2023-03-06T06:25:00.839Z,8.15
2023-03-06T06:30:03.289Z,7.43
2023-03-06T06:35:05.443Z,7.90
2023-03-06T06:40:07.978Z,8.40
2023-03-06T06:45:11.130Z,7.70
2023-03-06T06:50:13.975Z,7.65
2023-03-06T06:55:16.176Z,7.15
2023-03-06T07:00:18.835Z,7.57
2023-03-06T07:05:21.771Z,8.13
2023-03-06T07:10:23.970Z,7.82
2023-03-06T07:15:27.091Z,7.43
2023-03-06T07:20:28.903Z,8.45
2023-03-06T07:25:30.611Z,8.35
2023-03-06T07:30:33.383Z,7.97
2023-03-06T07:35:35.743Z,8.65
2023-03-06T07:40:39.281Z,8.18
2023-03-06T07:45:40.978Z,8.20
2023-03-06T07:50:43.347Z,9.05
2023-03-06T07:55:45.026Z,8.73
2023-03-06T08:00:46.938Z,9.00
2023-03-06T08:05:48.692Z,9.25
2023-03-06T08:10:50.433Z,9.48
2023-03-06T08:15:52.143Z,8.38
2023-03-06T08:21:07.515Z,9.27
2023-03-06T08:26:15.991Z,8.70
2023-03-06T08:31:26.773Z,9.35
2023-03-06T08:36:28.751Z,8.68
2023-03-06T08:41:30.805Z,14.55
2023-03-06T08:46:34.197Z,8.73
2023-03-06T08:51:36.276Z,9.05
2023-03-06T08:56:38.032Z,9.57
2023-03-06T09:01:40.132Z,9.10
2023-03-06T09:06:45.318Z,9.18
2023-03-06T09:11:47.069Z,9.40
2023-03-06T09:16:48.862Z,9.43
2023-03-06T09:21:50.621Z,9.63
2023-03-06T09:26:52.354Z,9.10
2023-03-06T09:31:54.479Z,9.60
2023-03-06T09:36:57.648Z,9.55
2023-03-06T09:41:59.543Z,8.60
2023-03-06T09:47:10.126Z,9.50
2023-03-06T09:52:29.940Z,10.77
2023-03-06T09:57:38.540Z,9.32
2023-03-06T10:03:06.629Z,10.10
2023-03-06T10:08:39.379Z,9.40
2023-03-06T10:13:47.855Z,10.80
2023-03-06T10:18:50.524Z,11.13
2023-03-06T10:23:56.272Z,11.63
2023-03-06T10:29:13.061Z,13.48
2023-03-06T10:34:28.577Z,14.00
2023-03-06T10:39:30.767Z,14.13
2023-03-06T10:44:32.637Z,13.07
2023-03-06T10:49:36.540Z,13.55
2023-03-06T10:54:42.295Z,13.98
2023-03-06T10:59:58.404Z,14.10
2023-03-06T11:05:01.894Z,14.65
2023-03-06T11:10:19.109Z,13.20
2023-03-06T11:15:23.959Z,12.80
2023-03-06T11:20:30.397Z,17.98
2023-03-06T11:25:48.552Z,13.40
2023-03-06T11:30:56.484Z,14.43
2023-03-06T11:36:12.951Z,13.93
2023-03-06T11:41:26.914Z,12.63
2023-03-06T11:46:34.810Z,13.13
2023-03-06T11:51:42.526Z,13.85
2023-03-06T11:56:55.963Z,12.98
2023-03-06T12:02:19.385Z,13.13
2023-03-06T12:07:46.848Z,12.85
2023-03-06T12:13:14.053Z,11.55
2023-03-06T12:18:21.999Z,10.30
2023-03-06T12:23:36.070Z,9.95
2023-03-06T12:28:40.883Z,11.27
2023-03-06T12:34:19.988Z,10.70
2023-03-06T12:39:43.615Z,9.30
2023-03-06T12:45:03.179Z,9.55
2023-03-06T12:50:22.443Z,8.30
2023-03-06T12:55:25.983Z,8.32
2023-03-06T13:00:34.301Z,6.80
2023-03-06T13:05:49.697Z,5.00
2023-03-06T13:11:27.541Z,5.82
2023-03-06T13:16:34.510Z,5.88
2023-03-06T13:21:43.671Z,5.63
2023-03-06T13:26:45.337Z,6.60
2023-03-06T13:31:47.180Z,7.50
2023-03-06T13:36:49.059Z,6.72
2023-03-06T13:41:57.357Z,7.75
2023-03-06T13:47:22.667Z,8.32
2023-03-06T13:52:38.344Z,8.43
2023-03-06T13:57:55.025Z,8.90
2023-03-06T14:03:18.615Z,8.88
2023-03-06T14:08:22.133Z,8.95
2023-03-06T14:13:35.062Z,8.48
2023-03-06T14:18:46.300Z,8.73
2023-03-06T14:24:02.898Z,9.10
2023-03-06T14:29:04.930Z,10.15
2023-03-06T14:34:22.486Z,8.23
2023-03-06T14:39:36.319Z,7.82
2023-03-06T14:44:38.132Z,8.20
2023-03-06T14:49:39.915Z,7.93
2023-03-06T14:54:44.349Z,8.63
2023-03-06T14:59:52.179Z,8.35
2023-03-06T15:05:00.124Z,9.05
2023-03-06T15:10:02.159Z,11.00
2023-03-06T15:15:08.048Z,9.63
2023-03-06T15:20:41.186Z,9.18
2023-03-06T15:26:12.497Z,9.45
2023-03-06T15:31:22.284Z,9.77
2023-03-06T15:36:29.800Z,10.27
2023-03-06T15:41:38.825Z,10.52
2023-03-06T15:46:41.523Z,10.57
2023-03-06T15:51:43.475Z,7.03
2023-03-06T15:56:47.160Z,6.75
2023-03-06T16:01:56.576Z,6.30
2023-03-06T16:06:58.567Z,6.22
2023-03-06T16:12:00.694Z,6.40
2023-03-06T16:17:02.597Z,6.50
2023-03-06T16:22:04.463Z,6.60
2023-03-06T16:27:06.973Z,6.80
2023-03-06T16:32:11.166Z,7.22
2023-03-06T16:37:14.079Z,7.43
2023-03-06T16:42:17.596Z,8.70
2023-03-06T16:47:19.304Z,11.02
2023-03-06T16:52:21.061Z,9.70
2023-03-06T16:57:23.189Z,7.43
2023-03-06T17:02:28.064Z,7.53
2023-03-06T17:07:29.906Z,7.90
2023-03-06T17:12:31.821Z,9.88
2023-03-06T17:17:34.066Z,8.75
2023-03-06T17:22:36.639Z,7.90
2023-03-06T17:27:38.429Z,7.82
2023-03-06T17:32:41.005Z,8.15
2023-03-06T17:37:42.851Z,8.25
2023-03-06T17:42:44.747Z,8.75
2023-03-06T17:47:48.923Z,7.80
2023-03-06T17:52:50.783Z,8.70
2023-03-06T17:57:52.751Z,8.65
2023-03-06T18:02:54.436Z,9.20
2023-03-06T18:07:56.163Z,23.08
2023-03-06T18:12:57.847Z,8.73
2023-03-06T18:17:59.651Z,7.88
2023-03-06T18:23:04.360Z,7.65
2023-03-06T18:28:06.124Z,9.80
2023-03-06T18:33:08.425Z,9.43
2023-03-06T18:38:10.334Z,7.75
2023-03-06T18:43:12.059Z,8.23
2023-03-06T18:48:13.765Z,7.90
2023-03-06T18:53:15.498Z,8.40
2023-03-06T18:58:21.797Z,8.02
2023-03-06T19:03:23.643Z,8.65
2023-03-06T19:08:25.615Z,9.05
2023-03-06T19:13:27.342Z,8.68
2023-03-06T19:18:29.561Z,8.85
2023-03-06T19:23:31.258Z,8.50
2023-03-06T19:28:33.622Z,9.02
2023-03-06T19:33:37.449Z,8.68
2023-03-06T19:38:39.719Z,9.35
2023-03-06T19:43:42.847Z,8.95
2023-03-06T19:48:45.700Z,9.25
2023-03-06T19:53:47.997Z,11.75
2023-03-06T19:58:49.710Z,8.73
2023-03-06T20:03:58.409Z,8.82
2023-03-06T20:09:03.435Z,7.10
2023-03-06T20:14:06.935Z,8.70
2023-03-06T20:19:10.151Z,7.80
2023-03-06T20:24:18.789Z,8.95
2023-03-06T20:29:20.529Z,9.40
2023-03-06T20:34:22.649Z,10.23
2023-03-06T20:39:25.282Z,10.63
2023-03-06T20:44:27.313Z,12.73
2023-03-06T20:49:29.055Z,12.20
2023-03-06T20:54:30.745Z,10.32
2023-03-06T20:59:32.495Z,12.38
2023-03-06T21:04:34.220Z,11.98
2023-03-06T21:09:37.693Z,11.45
2023-03-06T21:14:53.605Z,12.00
2023-03-06T21:19:55.339Z,11.10
2023-03-06T21:24:57.051Z,10.63
2023-03-06T21:29:58.815Z,11.23
2023-03-06T21:35:00.670Z,10.85
2023-03-06T21:40:02.547Z,12.45
2023-03-06T21:45:05.332Z,11.20
2023-03-06T21:50:09.488Z,11.82
2023-03-06T21:55:11.305Z,11.02
2023-03-06T22:00:13.357Z,11.63
2023-03-06T22:05:15.337Z,11.90
2023-03-06T22:10:17.289Z,11.45
2023-03-06T22:15:21.886Z,11.27
2023-03-06T22:20:23.717Z,11.38
2023-03-06T22:25:25.575Z,11.98
2023-03-06T22:30:27.418Z,11.80
2023-03-06T22:35:29.234Z,11.43
2023-03-06T22:40:32.952Z,12.00
2023-03-06T22:45:35.035Z,12.45
2023-03-06T22:50:36.805Z,12.13
2023-03-06T22:55:38.533Z,12.40
2023-03-06T23:00:40.286Z,12.02
2023-03-06T23:05:43.086Z,11.18
2023-03-06T23:10:44.971Z,11.85
2023-03-06T23:15:46.993Z,12.05
2023-03-06T23:20:48.706Z,11.73
2023-03-06T23:25:50.559Z,11.10
2023-03-06T23:30:52.591Z,12.23
2023-03-06T23:35:54.267Z,11.52
2023-03-06T23:40:56.035Z,12.15
2023-03-06T23:45:58.334Z,12.45
2023-03-06T23:51:00.539Z,11.70
2023-03-06T23:56:06.113Z,10.13
